createdAt,value
2023-01-07T00:02:53.153Z,9.68
2023-01-07T00:07:59.473Z,9.55
2023-01-07T00:13:03.214Z,8.98
2023-01-07T00:18:06.745Z,8.18
2023-01-07T00:23:11.596Z,8.63
2023-01-07T00:28:15.145Z,7.90
2023-01-07T00:33:21.148Z,7.80
2023-01-07T00:38:26.014Z,8.23
2023-01-07T00:43:29.725Z,8.70
2023-01-07T00:48:33.340Z,8.02
2023-01-07T00:53:38.351Z,9.50
2023-01-07T00:58:42.246Z,8.48
2023-01-07T01:03:46.111Z,9.32
2023-01-07T01:08:51.324Z,7.97
2023-01-07T01:13:54.810Z,8.52
2023-01-07T01:18:58.354Z,8.43
2023-01-07T01:24:03.260Z,8.93
2023-01-07T01:29:06.835Z,8.55
2023-01-07T01:34:10.699Z,9.05
2023-01-07T01:39:15.649Z,7.55
2023-01-07T01:44:38.153Z,7.55
2023-01-07T01:49:48.863Z,7.13
2023-01-07T01:54:58.104Z,6.07
2023-01-07T02:00:02.100Z,6.68
2023-01-07T02:05:07.745Z,5.90
2023-01-07T02:10:16.067Z,5.70
2023-01-07T02:15:28.090Z,6.13
2023-01-07T02:20:52.649Z,6.60
2023-01-07T02:26:24.918Z,6.63
2023-01-07T02:32:05.021Z,6.30
2023-01-07T02:37:15.932Z,6.10
2023-01-07T02:42:26.679Z,6.03
2023-01-07T02:47:37.628Z,5.78
2023-01-07T02:52:41.251Z,4.15
2023-01-07T02:58:08.563Z,5.78
2023-01-07T03:03:28.350Z,5.68
2023-01-07T03:13:52.342Z,5.40
2023-01-07T03:19:04.954Z,5.70
2023-01-07T03:24:09.513Z,6.10
2023-01-07T03:29:15.760Z,4.95
2023-01-07T03:34:24.519Z,4.90
2023-01-07T03:39:32.789Z,4.95
2023-01-07T03:44:36.640Z,5.25
2023-01-07T03:49:41.747Z,4.97
2023-01-07T03:54:45.386Z,4.68
2023-01-07T03:59:49.639Z,5.03
2023-01-07T04:04:55.147Z,4.60
2023-01-07T04:09:58.921Z,4.80
2023-01-07T04:15:03.763Z,4.85
2023-01-07T04:20:10.537Z,4.70
2023-01-07T04:25:14.148Z,4.47
2023-01-07T04:30:18.201Z,4.80
2023-01-07T04:35:23.247Z,4.35
2023-01-07T04:40:27.270Z,4.32
2023-01-07T04:45:31.710Z,4.28
2023-01-07T04:50:38.659Z,4.63
2023-01-07T04:55:43.912Z,4.70
2023-01-07T05:00:49.367Z,4.30
2023-01-07T05:05:55.167Z,4.28
2023-01-07T05:10:59.993Z,4.47
2023-01-07T05:16:04.193Z,4.05
2023-01-07T05:21:10.536Z,3.47
2023-01-07T05:26:15.118Z,4.38
2023-01-07T05:31:20.538Z,3.92
2023-01-07T05:36:25.686Z,3.47
2023-01-07T05:41:30.717Z,4.25
2023-01-07T05:46:34.471Z,4.07
2023-01-07T05:51:39.356Z,3.70
2023-01-07T05:56:42.951Z,4.03
2023-01-07T06:01:46.443Z,3.10
2023-01-07T06:06:51.367Z,3.13
2023-01-07T06:11:54.845Z,3.75
2023-01-07T06:16:58.421Z,3.47
2023-01-07T06:22:03.422Z,3.08
2023-01-07T06:27:06.935Z,2.67
2023-01-07T06:32:11.137Z,2.65
2023-01-07T06:37:17.891Z,4.20
2023-01-07T06:42:21.387Z,3.03
2023-01-07T06:47:25.343Z,2.45
2023-01-07T06:52:30.212Z,2.70
2023-01-07T06:57:33.735Z,2.67
2023-01-07T07:02:37.335Z,2.63
2023-01-07T07:07:42.356Z,2.13
2023-01-07T07:12:45.937Z,4.00
2023-01-07T07:17:49.473Z,2.75
2023-01-07T07:22:54.638Z,2.40
2023-01-07T07:27:58.174Z,2.50
2023-01-07T07:33:03.551Z,2.10
2023-01-07T07:38:08.426Z,2.10
2023-01-07T07:43:13.068Z,2.05
2023-01-07T07:48:17.373Z,2.00
2023-01-07T07:53:22.477Z,2.17
2023-01-07T07:58:25.965Z,2.22
2023-01-07T08:03:29.721Z,1.80
2023-01-07T08:08:34.844Z,1.88
2023-01-07T08:13:38.385Z,1.80
2023-01-07T08:18:42.029Z,1.70
2023-01-07T08:23:47.028Z,1.63
2023-01-07T08:28:50.509Z,1.40
2023-01-07T08:33:54.026Z,2.50
2023-01-07T08:39:00.170Z,2.17
2023-01-07T08:44:04.022Z,1.73
2023-01-07T08:49:07.925Z,1.73
2023-01-07T08:54:13.072Z,1.90
2023-01-07T08:59:16.870Z,1.85
2023-01-07T09:04:20.458Z,1.70
2023-01-07T09:09:25.480Z,1.80
2023-01-07T09:14:29.072Z,1.90
2023-01-07T09:19:33.007Z,2.15
2023-01-07T09:24:38.461Z,2.20
2023-01-07T09:29:42.557Z,1.95
2023-01-07T09:34:46.258Z,2.28
2023-01-07T09:39:51.903Z,2.10
2023-01-07T09:45:06.568Z,1.98
2023-01-07T09:50:19.051Z,2.00
2023-01-07T09:55:36.406Z,1.73
2023-01-07T10:00:48.508Z,1.75
2023-01-07T10:06:03.507Z,2.20
2023-01-07T10:11:23.662Z,1.88
2023-01-07T10:16:35.843Z,1.73
2023-01-07T10:21:44.153Z,1.75
2023-01-07T10:26:52.567Z,1.52
2023-01-07T10:32:00.190Z,1.60
2023-01-07T10:37:07.550Z,1.40
2023-01-07T10:42:20.333Z,1.25
2023-01-07T10:47:41.527Z,1.20
2023-01-07T10:57:53.065Z,1.00
2023-01-07T11:03:00.105Z,1.20
2023-01-07T11:08:06.362Z,1.10
2023-01-07T11:13:16.725Z,1.20
2023-01-07T11:18:23.078Z,1.00
2023-01-07T11:23:35.518Z,1.35
2023-01-07T11:28:44.336Z,1.13
2023-01-07T11:34:02.305Z,1.17
2023-01-07T11:39:12.015Z,0.80
2023-01-07T11:44:17.963Z,0.90
2023-01-07T11:49:27.487Z,1.00
2023-01-07T11:54:33.801Z,0.90
2023-01-07T11:59:38.867Z,0.80
2023-01-07T12:04:44.770Z,0.85
2023-01-07T12:09:48.717Z,1.08
2023-01-07T12:14:53.775Z,1.23
2023-01-07T12:20:45.540Z,1.02
2023-01-07T12:25:59.795Z,1.15
2023-01-07T12:31:23.407Z,1.20
2023-01-07T12:36:35.849Z,1.00
2023-01-07T12:41:43.828Z,6.53
2023-01-07T12:47:32.336Z,1.40
2023-01-07T12:52:38.204Z,1.33
2023-01-07T12:57:46.999Z,1.50
2023-01-07T13:02:59.428Z,1.10
2023-01-07T13:08:10.944Z,1.20
2023-01-07T13:13:21.955Z,1.75
2023-01-07T13:18:27.141Z,2.53
2023-01-07T13:23:47.486Z,1.83
2023-01-07T13:29:09.292Z,1.13
2023-01-07T13:34:26.399Z,2.00
2023-01-07T13:39:46.563Z,2.33
2023-01-07T13:45:06.596Z,2.00
2023-01-07T13:50:25.260Z,2.10
2023-01-07T13:55:38.259Z,1.60
2023-01-07T14:00:45.592Z,2.13
2023-01-07T14:05:50.796Z,2.10
2023-01-07T14:10:55.431Z,2.05
2023-01-07T14:16:12.746Z,2.42
2023-01-07T14:21:37.679Z,2.80
2023-01-07T14:26:49.819Z,2.70
2023-01-07T14:31:53.718Z,3.33
2023-01-07T14:37:18.509Z,3.38
2023-01-07T14:42:44.122Z,3.00
2023-01-07T14:47:55.501Z,3.28
2023-01-07T14:58:57.341Z,3.15
2023-01-07T15:04:37.649Z,4.25
2023-01-07T15:10:03.618Z,2.10
2023-01-07T15:15:33.211Z,2.83
2023-01-07T15:20:50.808Z,2.63
2023-01-07T15:26:00.679Z,2.75
2023-01-07T15:31:14.036Z,2.78
2023-01-07T15:36:18.151Z,14.75
2023-01-07T15:41:32.140Z,2.50
2023-01-07T15:46:41.543Z,2.33
2023-01-07T15:51:48.875Z,2.20
2023-01-07T15:56:55.412Z,2.00
2023-01-07T16:02:14.953Z,2.10
2023-01-07T16:07:24.514Z,2.15
2023-01-07T16:12:35.212Z,2.25
2023-01-07T16:17:51.079Z,2.28
2023-01-07T16:23:13.640Z,2.63
2023-01-07T16:28:19.928Z,1.98
2023-01-07T16:33:29.226Z,13.48
2023-01-07T16:38:36.658Z,2.15
2023-01-07T16:43:46.292Z,2.15
2023-01-07T16:49:19.866Z,2.20
2023-01-07T16:54:30.508Z,2.05
2023-01-07T16:59:36.760Z,2.00
2023-01-07T17:04:42.126Z,1.98
2023-01-07T17:09:46.728Z,2.40
2023-01-07T17:14:51.465Z,2.00
2023-01-07T17:20:02.542Z,2.13
2023-01-07T17:30:19.492Z,2.35
2023-01-07T17:35:26.167Z,2.45
2023-01-07T17:40:29.954Z,3.00
2023-01-07T17:45:33.886Z,3.10
2023-01-07T17:50:39.167Z,3.08
2023-01-07T17:55:42.798Z,3.17
2023-01-07T18:00:46.492Z,3.33
2023-01-07T18:05:51.601Z,3.15
2023-01-07T18:11:13.532Z,2.80
2023-01-07T18:16:17.331Z,3.42
2023-01-07T18:21:22.609Z,3.58
2023-01-07T18:26:26.486Z,3.45
2023-01-07T18:31:30.345Z,3.42
2023-01-07T18:36:35.755Z,3.35
2023-01-07T18:41:41.968Z,3.58
2023-01-07T18:46:45.782Z,3.60
2023-01-07T18:51:50.990Z,3.17
2023-01-07T18:56:54.605Z,3.58
2023-01-07T19:02:00.639Z,3.75
2023-01-07T19:07:05.907Z,2.85
2023-01-07T19:12:11.398Z,6.40
2023-01-07T19:17:15.270Z,4.05
2023-01-07T19:22:21.462Z,3.97
2023-01-07T19:27:25.334Z,4.80
2023-01-07T19:32:30.322Z,4.38
2023-01-07T19:37:37.910Z,3.15
2023-01-07T19:42:41.509Z,2.78
2023-01-07T19:47:47.000Z,2.75
2023-01-07T19:52:52.133Z,2.92
2023-01-07T19:57:55.971Z,2.83
2023-01-07T20:02:59.971Z,2.67
2023-01-07T20:08:05.766Z,2.63
2023-01-07T20:13:09.748Z,2.58
2023-01-07T20:18:15.243Z,2.58
2023-01-07T20:23:20.401Z,2.90
2023-01-07T20:28:24.299Z,2.45
2023-01-07T20:33:27.865Z,2.92
2023-01-07T20:38:32.967Z,2.90
2023-01-07T20:43:38.042Z,2.33
2023-01-07T20:48:41.845Z,2.45
2023-01-07T20:53:47.654Z,2.45
2023-01-07T20:58:51.805Z,1.90
2023-01-07T21:03:55.679Z,1.92
2023-01-07T21:09:00.653Z,1.40
2023-01-07T21:14:04.443Z,2.13
2023-01-07T21:19:11.155Z,4.47
2023-01-07T21:24:17.573Z,1.90
2023-01-07T21:29:21.404Z,2.13
2023-01-07T21:34:25.215Z,1.83
2023-01-07T21:39:30.394Z,2.10
2023-01-07T21:44:34.489Z,1.60
2023-01-07T21:49:38.186Z,1.77
2023-01-07T21:54:43.058Z,2.10
2023-01-07T21:59:46.787Z,2.10
2023-01-07T22:04:50.651Z,1.83
2023-01-07T22:09:55.904Z,1.98
2023-01-07T22:14:59.769Z,2.33
2023-01-07T22:20:03.271Z,2.20
2023-01-07T22:25:09.712Z,2.72
2023-01-07T22:30:15.214Z,2.08
2023-01-07T22:35:18.891Z,2.47
2023-01-07T22:40:23.942Z,2.60
2023-01-07T22:45:37.652Z,2.47
2023-01-07T22:50:41.966Z,2.55
2023-01-07T22:55:48.949Z,2.33
2023-01-07T23:01:14.460Z,2.60
2023-01-07T23:06:18.467Z,2.80
2023-01-07T23:11:41.216Z,2.45
2023-01-07T23:16:45.146Z,2.70
2023-01-07T23:21:52.182Z,2.88
2023-01-07T23:26:57.322Z,2.55
2023-01-07T23:32:00.954Z,2.55
2023-01-07T23:37:04.609Z,2.47
2023-01-07T23:42:09.493Z,2.53
2023-01-07T23:47:13.031Z,2.35
2023-01-07T23:52:17.335Z,2.60
2023-01-07T23:57:22.218Z,2.50
